Time;durP1;ratioP1;P1;durP2;ratioP2;P2;SDS_P1;SDS_P2;PMS_P1;PMS_P2;Temp;Humidity;BMP_temperature;BMP_pressure;BME280_temperature;BME280_humidity;BME280_pressure;Samples;Min_cycle;Max_cycle;Signal;HPM_P1;HPM_P2
2020/12/27 00:00:28;;;;;;;1.63;1.53;;;4.40;99.90;;;;;;5031901;28;20191;-64
2020/12/27 00:02:53;;;;;;;1.60;1.50;;;4.40;99.90;;;;;;5032727;28;20172;-64
2020/12/27 00:05:20;;;;;;;1.60;1.50;;;4.30;99.90;;;;;;5032385;28;20641;-65
2020/12/27 00:07:46;;;;;;;1.30;1.30;;;4.30;99.90;;;;;;5032514;28;20179;-64
2020/12/27 00:10:12;;;;;;;1.70;1.60;;;4.30;99.90;;;;;;5031921;28;20522;-65
2020/12/27 00:12:38;;;;;;;2.60;1.60;;;4.30;99.90;;;;;;5031832;28;20182;-65
2020/12/27 00:15:05;;;;;;;2.10;1.83;;;4.30;99.90;;;;;;5032500;28;20629;-65
2020/12/27 00:17:30;;;;;;;1.77;1.67;;;4.20;99.90;;;;;;5031988;28;20558;-64
2020/12/27 00:19:57;;;;;;;1.93;1.83;;;4.20;99.90;;;;;;5032028;28;20273;-64
2020/12/27 00:22:23;;;;;;;1.70;1.60;;;4.20;99.90;;;;;;5032016;28;20179;-65
2020/12/27 00:24:49;;;;;;;2.60;1.77;;;4.20;99.90;;;;;;5032043;28;20641;-64
2020/12/27 00:27:15;;;;;;;1.80;1.70;;;4.20;99.90;;;;;;5032273;28;20178;-64
2020/12/27 00:29:42;;;;;;;1.80;1.70;;;4.30;99.90;;;;;;5031898;28;20207;-65
2020/12/27 00:32:07;;;;;;;1.80;1.70;;;4.20;99.90;;;;;;5031626;28;20203;-65
2020/12/27 00:34:33;;;;;;;1.87;1.77;;;4.20;99.90;;;;;;5031678;28;20182;-65
2020/12/27 00:36:59;;;;;;;1.70;1.60;;;4.20;99.90;;;;;;5031815;28;20160;-65
2020/12/27 00:39:26;;;;;;;2.10;1.90;;;4.30;99.90;;;;;;5031939;28;20225;-65
2020/12/27 00:41:57;;;;;;;2.77;1.77;;;4.30;99.90;;;;;;5031879;28;20618;-65
2020/12/27 00:44:22;;;;;;;2.23;1.70;;;4.40;99.90;;;;;;5033570;28;20183;-65
2020/12/27 00:46:49;;;;;;;2.63;1.60;;;4.40;99.90;;;;;;5031806;28;20656;-65
2020/12/27 00:49:16;;;;;;;1.63;1.53;;;4.40;99.90;;;;;;5031716;28;20176;-65
2020/12/27 00:51:42;;;;;;;1.70;1.60;;;4.40;99.90;;;;;;5031187;28;20226;-64
2020/12/27 00:54:07;;;;;;;1.40;1.40;;;4.40;99.90;;;;;;5032002;28;20187;-65
2020/12/27 00:56:33;;;;;;;1.73;1.60;;;4.40;99.90;;;;;;5031584;28;20171;-65
2020/12/27 00:58:58;;;;;;;1.47;1.37;;;4.40;99.90;;;;;;5031319;28;20213;-64
2020/12/27 01:01:24;;;;;;;1.97;1.60;;;4.40;99.90;;;;;;5031630;28;20219;-65
2020/12/27 01:03:49;;;;;;;1.60;1.50;;;4.40;99.90;;;;;;5031710;28;20182;-65
2020/12/27 01:06:21;;;;;;;1.70;1.60;;;4.50;99.90;;;;;;5031292;28;20567;-65
2020/12/27 01:08:47;;;;;;;2.07;1.63;;;4.50;99.90;;;;;;5032722;28;20171;-65
2020/12/27 01:11:13;;;;;;;1.73;1.50;;;4.50;99.90;;;;;;5032789;28;20210;-65
2020/12/27 01:13:39;;;;;;;1.70;1.60;;;4.40;99.90;;;;;;5032725;28;20176;-65
2020/12/27 01:16:09;;;;;;;1.57;1.47;;;4.40;99.90;;;;;;5031947;28;20163;-65
2020/12/27 01:18:35;;;;;;;1.53;1.43;;;4.40;99.90;;;;;;5031077;28;20207;-65
2020/12/27 01:21:00;;;;;;;1.77;1.67;;;4.40;99.90;;;;;;5030982;28;20242;-65
2020/12/27 01:23:26;;;;;;;1.80;1.50;;;4.30;99.90;;;;;;5030946;28;20203;-65
2020/12/27 01:25:51;;;;;;;1.60;1.50;;;4.20;99.90;;;;;;5031478;28;20176;-65
2020/12/27 01:28:17;;;;;;;1.70;1.60;;;4.20;99.90;;;;;;5030895;28;20198;-64
2020/12/27 01:30:44;;;;;;;1.77;1.67;;;4.20;99.90;;;;;;5030620;28;20583;-65
2020/12/27 01:33:09;;;;;;;1.60;1.50;;;4.20;99.90;;;;;;5031220;28;20183;-65
2020/12/27 01:35:35;;;;;;;1.60;1.50;;;4.20;99.90;;;;;;5031421;28;20183;-65
2020/12/27 01:38:01;;;;;;;1.87;1.77;;;4.20;99.90;;;;;;5031037;28;20649;-65
2020/12/27 01:40:26;;;;;;;1.60;1.50;;;4.30;99.90;;;;;;5030923;28;20265;-65
2020/12/27 01:42:59;;;;;;;1.73;1.63;;;4.30;99.90;;;;;;5030851;28;20183;-65
2020/12/27 01:45:25;;;;;;;1.47;1.40;;;4.30;99.90;;;;;;5031386;28;20365;-65
2020/12/27 01:47:51;;;;;;;1.70;1.60;;;4.30;99.90;;;;;;5030872;28;20175;-65
2020/12/27 01:50:20;;;;;;;1.90;1.80;;;4.20;99.90;;;;;;5030890;28;20625;-65
2020/12/27 01:52:46;;;;;;;1.70;1.60;;;4.20;99.90;;;;;;5030891;28;20190;-65
2020/12/27 01:55:13;;;;;;;1.80;1.70;;;4.20;99.90;;;;;;5031165;28;20163;-65
2020/12/27 01:57:57;;;;;;;1.80;1.70;;;4.20;99.90;;;;;;5033146;28;20266;-65
2020/12/27 02:00:23;;;;;;;1.73;1.63;;;4.30;99.90;;;;;;5034283;28;20199;-64
2020/12/27 02:02:48;;;;;;;1.80;1.70;;;4.20;99.90;;;;;;5034621;28;20170;-65
2020/12/27 02:05:14;;;;;;;2.03;1.93;;;4.20;99.90;;;;;;5034448;28;20199;-65
2020/12/27 02:07:43;;;;;;;1.60;1.50;;;4.20;99.90;;;;;;5034642;28;20178;-65
2020/12/27 02:10:09;;;;;;;2.50;2.30;;;4.20;99.90;;;;;;5034349;28;20238;-65
2020/12/27 02:12:34;;;;;;;1.60;1.50;;;4.30;99.90;;;;;;5034441;28;20209;-65
2020/12/27 02:15:00;;;;;;;1.80;1.70;;;4.20;99.90;;;;;;5034434;28;20167;-65
2020/12/27 02:17:25;;;;;;;1.63;1.53;;;4.20;99.90;;;;;;5034308;28;20194;-65
2020/12/27 02:19:51;;;;;;;1.90;1.70;;;4.20;99.90;;;;;;5034393;28;20176;-65
2020/12/27 02:22:17;;;;;;;1.30;1.30;;;4.30;99.90;;;;;;5032743;28;20217;-65
2020/12/27 02:24:42;;;;;;;1.73;1.57;;;4.30;99.90;;;;;;5032816;28;20180;-65
2020/12/27 02:27:09;;;;;;;1.93;1.60;;;4.30;99.90;;;;;;5034225;28;20206;-65
2020/12/27 02:29:36;;;;;;;1.47;1.40;;;4.40;99.90;;;;;;5034050;28;20186;-65
2020/12/27 02:32:02;;;;;;;2.50;1.23;;;4.40;99.90;;;;;;5034291;28;20203;-65
2020/12/27 02:34:28;;;;;;;1.60;1.50;;;4.40;99.90;;;;;;5033910;28;20858;-64
2020/12/27 02:36:54;;;;;;;1.53;1.37;;;4.40;99.90;;;;;;5034057;28;20259;-65
2020/12/27 02:39:20;;;;;;;1.70;1.60;;;4.50;99.90;;;;;;5033844;28;20203;-65
2020/12/27 02:41:51;;;;;;;1.47;1.37;;;4.50;99.90;;;;;;5033602;28;20262;-65
2020/12/27 02:44:17;;;;;;;1.70;1.60;;;4.50;99.90;;;;;;5033995;28;20245;-65
2020/12/27 02:46:43;;;;;;;1.60;1.50;;;4.50;99.90;;;;;;5033876;28;20176;-65
2020/12/27 02:49:09;;;;;;;1.30;1.30;;;4.40;99.90;;;;;;5034357;28;20184;-64
2020/12/27 02:51:34;;;;;;;1.40;1.40;;;4.50;99.90;;;;;;5033394;28;20286;-63
2020/12/27 02:54:01;;;;;;;1.30;1.30;;;4.50;99.90;;;;;;5033611;28;20175;-64
2020/12/27 02:56:27;;;;;;;1.40;1.30;;;4.50;99.90;;;;;;5032420;28;20176;-64
2020/12/27 02:58:55;;;;;;;1.30;1.30;;;4.50;99.90;;;;;;5033372;28;20236;-64
2020/12/27 03:01:21;;;;;;;1.30;1.30;;;4.50;99.90;;;;;;5033016;28;20227;-65
2020/12/27 03:03:47;;;;;;;1.40;1.30;;;4.60;99.90;;;;;;5033632;28;20202;-65
2020/12/27 03:06:13;;;;;;;1.50;1.40;;;4.60;99.90;;;;;;5033598;28;20179;-64
2020/12/27 03:08:39;;;;;;;1.70;1.47;;;4.60;99.90;;;;;;5033800;28;20209;-65
2020/12/27 03:11:05;;;;;;;1.50;1.40;;;4.70;99.90;;;;;;5033021;28;20214;-65
2020/12/27 03:13:34;;;;;;;1.60;1.50;;;4.70;99.90;;;;;;5032248;28;20180;-65
2020/12/27 03:16:04;;;;;;;1.40;1.40;;;4.70;99.90;;;;;;5033465;28;20168;-65
2020/12/27 03:18:30;;;;;;;1.57;1.47;;;4.70;99.90;;;;;;5033206;28;20266;-65
2020/12/27 03:20:56;;;;;;;1.50;1.40;;;4.70;99.90;;;;;;5032969;28;20187;-65
2020/12/27 03:23:22;;;;;;;1.77;1.50;;;4.70;99.90;;;;;;5030804;28;20195;-65
2020/12/27 03:25:48;;;;;;;1.30;1.30;;;4.70;99.90;;;;;;5033250;28;20589;-65
2020/12/27 03:28:14;;;;;;;1.57;1.47;;;4.70;99.90;;;;;;5033006;28;20189;-65
2020/12/27 03:30:40;;;;;;;1.40;1.40;;;4.70;99.90;;;;;;5032375;28;20215;-65
2020/12/27 03:33:06;;;;;;;1.27;1.27;;;4.70;99.90;;;;;;5033141;28;20609;-65
2020/12/27 03:35:32;;;;;;;1.27;1.27;;;4.70;99.90;;;;;;5031541;28;20175;-64
2020/12/27 03:37:58;;;;;;;1.40;1.30;;;4.70;99.90;;;;;;5033365;28;20194;-65
2020/12/27 03:40:23;;;;;;;1.37;1.30;;;4.80;99.90;;;;;;5032330;28;20552;-65
2020/12/27 03:42:49;;;;;;;1.13;1.13;;;4.80;99.90;;;;;;5032720;28;20175;-64
2020/12/27 03:45:15;;;;;;;1.40;1.30;;;4.80;99.90;;;;;;5031517;28;20211;-65
2020/12/27 03:47:41;;;;;;;1.40;1.30;;;4.80;99.90;;;;;;5032652;28;20211;-64
2020/12/27 03:50:06;;;;;;;1.63;1.30;;;4.80;99.90;;;;;;5032169;28;20175;-65
2020/12/27 03:52:32;;;;;;;1.17;1.17;;;4.80;99.90;;;;;;5032560;28;20648;-65
2020/12/27 03:54:58;;;;;;;1.30;1.20;;;4.80;99.90;;;;;;5032350;28;20171;-64
2020/12/27 03:57:24;;;;;;;1.47;1.30;;;4.80;99.90;;;;;;5032358;28;20261;-65
2020/12/27 03:59:49;;;;;;;1.10;1.10;;;4.80;99.90;;;;;;5032438;28;20175;-65
2020/12/27 04:02:15;;;;;;;1.13;1.13;;;4.80;99.90;;;;;;5032180;28;20191;-65
2020/12/27 04:04:41;;;;;;;2.20;1.23;;;4.80;99.90;;;;;;5032253;28;20202;-65
2020/12/27 04:07:07;;;;;;;1.10;1.10;;;4.80;99.90;;;;;;5032318;28;20183;-65
2020/12/27 04:09:32;;;;;;;1.20;1.20;;;4.70;99.90;;;;;;5032058;28;20234;-64
2020/12/27 04:11:58;;;;;;;1.10;1.10;;;4.80;99.90;;;;;;5031938;28;20290;-65
2020/12/27 04:14:24;;;;;;;1.20;1.20;;;4.80;99.90;;;;;;5032026;28;20171;-64
2020/12/27 04:16:50;;;;;;;1.17;1.17;;;4.80;99.90;;;;;;5032199;28;20203;-65
2020/12/27 04:19:16;;;;;;;1.30;1.30;;;4.80;99.90;;;;;;5031550;28;20594;-65
2020/12/27 04:21:43;;;;;;;1.33;1.23;;;4.80;99.90;;;;;;5031950;28;20330;-65
2020/12/27 04:24:09;;;;;;;1.50;1.50;;;4.80;99.90;;;;;;5031939;28;20188;-64
2020/12/27 04:26:34;;;;;;;1.47;1.13;;;4.80;99.90;;;;;;5031836;28;20278;-65
2020/12/27 04:29:00;;;;;;;1.00;1.00;;;4.80;99.90;;;;;;5031908;28;20254;-65
2020/12/27 04:31:25;;;;;;;1.20;1.20;;;4.80;99.90;;;;;;5031296;28;20246;-66
2020/12/27 04:33:53;;;;;;;1.20;1.20;;;4.80;99.90;;;;;;5032245;28;20660;-64
2020/12/27 04:36:19;;;;;;;1.10;1.10;;;4.80;99.90;;;;;;5031786;28;20207;-64
2020/12/27 04:38:45;;;;;;;1.20;1.20;;;4.80;99.90;;;;;;5031976;28;20585;-65
2020/12/27 04:41:14;;;;;;;1.20;1.20;;;4.80;99.90;;;;;;5031165;28;20249;-65
2020/12/27 04:43:42;;;;;;;1.40;1.30;;;4.80;99.90;;;;;;5031790;28;20227;-65
2020/12/27 04:46:11;;;;;;;1.10;1.10;;;4.80;99.90;;;;;;5031519;28;20183;-64
2020/12/27 04:48:39;;;;;;;1.10;1.10;;;4.80;99.90;;;;;;5031715;28;20672;-65
2020/12/27 04:51:06;;;;;;;1.10;1.10;;;4.80;99.90;;;;;;5030923;28;20211;-64
2020/12/27 04:53:34;;;;;;;2.73;1.20;;;4.80;99.90;;;;;;5031677;28;20221;-64
2020/12/27 04:56:01;;;;;;;1.10;1.10;;;4.80;99.90;;;;;;5031445;28;20220;-64
2020/12/27 04:58:28;;;;;;;1.20;1.20;;;4.80;99.90;;;;;;5031448;28;20182;-65
2020/12/27 05:00:57;;;;;;;1.20;1.20;;;4.80;99.90;;;;;;5030868;28;20540;-65
2020/12/27 05:03:23;;;;;;;1.30;1.30;;;4.80;99.90;;;;;;5031715;28;20684;-64
2020/12/27 05:05:50;;;;;;;1.20;1.20;;;4.80;99.90;;;;;;5031520;28;20176;-65
2020/12/27 05:08:16;;;;;;;1.20;1.20;;;4.80;99.90;;;;;;5032251;28;20355;-64
2020/12/27 05:10:42;;;;;;;1.20;1.20;;;4.80;99.90;;;;;;5031238;28;20329;-65
2020/12/27 05:13:08;;;;;;;1.33;1.30;;;4.80;99.90;;;;;;5031041;28;20194;-65
2020/12/27 05:15:35;;;;;;;1.13;1.13;;;4.80;99.90;;;;;;5031434;28;20249;-65
2020/12/27 05:18:01;;;;;;;1.20;1.20;;;4.80;99.90;;;;;;5031204;28;20179;-65
2020/12/27 05:20:27;;;;;;;1.20;1.20;;;4.80;99.90;;;;;;5031027;28;20290;-65
2020/12/27 05:23:02;;;;;;;1.30;1.30;;;4.80;99.90;;;;;;5047808;22;20694;-64
2020/12/27 05:25:32;;;;;;;1.03;1.03;;;4.80;99.90;;;;;;5051889;28;20172;-64
2020/12/27 05:28:11;;;;;;;1.20;1.20;;;4.80;99.90;;;;;;5071424;28;20173;-64
2020/12/27 05:30:42;;;;;;;1.27;1.20;;;4.80;99.90;;;;;;5069309;28;20280;-64
2020/12/27 05:33:17;;;;;;;1.10;1.10;;;4.80;99.90;;;;;;5068288;28;20193;-64
2020/12/27 05:35:43;;;;;;;1.10;1.10;;;4.80;99.90;;;;;;5072188;28;20190;-64
2020/12/27 05:38:10;;;;;;;1.30;1.30;;;4.80;99.90;;;;;;5055186;28;20232;-63
2020/12/27 05:40:38;;;;;;;1.20;1.20;;;4.80;99.90;;;;;;5054847;28;20171;-65
2020/12/27 05:43:17;;;;;;;1.20;1.20;;;4.90;99.90;;;;;;5035094;28;20199;-65
2020/12/27 05:45:45;;;;;;;1.10;1.10;;;4.90;99.90;;;;;;5036168;28;20542;-64
2020/12/27 05:48:11;;;;;;;1.30;1.20;;;4.90;99.90;;;;;;5075074;28;20576;-63
2020/12/27 05:50:41;;;;;;;1.10;1.10;;;4.90;99.90;;;;;;5055685;28;20205;-65
2020/12/27 05:53:24;;;;;;;1.10;1.10;;;5.00;99.90;;;;;;5054758;28;20187;-64
2020/12/27 05:55:51;;;;;;;1.27;1.20;;;5.00;99.90;;;;;;5072506;28;20261;-64
2020/12/27 05:58:24;;;;;;;1.20;1.20;;;5.00;99.90;;;;;;5074795;28;20228;-64
2020/12/27 06:00:57;;;;;;;1.20;1.20;;;5.00;99.90;;;;;;5054960;28;20265;-65
2020/12/27 06:03:26;;;;;;;1.10;1.10;;;5.00;99.90;;;;;;5054838;28;20241;-65
2020/12/27 06:05:54;;;;;;;1.20;1.20;;;5.00;99.90;;;;;;5073702;28;20178;-65
2020/12/27 06:08:45;;;;;;;1.10;1.10;;;5.00;99.90;;;;;;5074013;28;20588;-65
2020/12/27 06:11:34;;;;;;;1.30;1.20;;;5.00;99.90;;;;;;5034235;28;20219;-65
2020/12/27 06:14:14;;;;;;;1.10;1.10;;;5.00;99.90;;;;;;5044919;28;20285;-64
2020/12/27 06:16:51;;;;;;;1.37;1.20;;;5.00;99.90;;;;;;5071877;28;20862;-65
2020/12/27 06:19:25;;;;;;;1.20;1.20;;;5.00;99.90;;;;;;5053100;28;20198;-64
2020/12/27 06:22:11;;;;;;;1.17;1.17;;;5.00;99.90;;;;;;5057664;28;20541;-65
2020/12/27 06:24:38;;;;;;;1.10;1.10;;;5.00;99.90;;;;;;5074104;28;20563;-62
2020/12/27 06:27:06;;;;;;;1.10;1.10;;;5.10;99.90;;;;;;5072553;28;20205;-65
2020/12/27 06:29:45;;;;;;;1.20;1.20;;;5.10;99.90;;;;;;5074059;28;20706;-65
2020/12/27 06:32:16;;;;;;;1.13;1.13;;;5.10;99.90;;;;;;5057645;28;20221;-64
2020/12/27 06:34:42;;;;;;;1.10;1.10;;;5.10;99.90;;;;;;5054427;28;20681;-65
2020/12/27 06:37:08;;;;;;;1.20;1.20;;;5.10;99.90;;;;;;5069099;28;20188;-64
2020/12/27 06:39:33;;;;;;;1.10;1.10;;;5.10;99.90;;;;;;5074034;28;20253;-64
2020/12/27 06:42:10;;;;;;;1.20;1.20;;;5.10;99.90;;;;;;5059779;28;20187;-64
2020/12/27 06:44:40;;;;;;;1.20;1.20;;;5.10;99.90;;;;;;5053898;28;20183;-66
2020/12/27 06:47:07;;;;;;;1.17;1.17;;;5.10;99.90;;;;;;5067241;28;20220;-65
2020/12/27 06:49:32;;;;;;;1.20;1.20;;;5.10;99.90;;;;;;5073811;28;20182;-64
2020/12/27 06:52:20;;;;;;;1.17;1.17;;;5.10;99.90;;;;;;5061149;28;20293;-64
2020/12/27 06:54:49;;;;;;;1.33;1.27;;;5.10;99.90;;;;;;5054299;28;20174;-65
2020/12/27 06:57:41;;;;;;;3.70;1.60;;;5.10;99.90;;;;;;5073582;28;20174;-65
2020/12/27 07:00:26;;;;;;;1.97;1.77;;;5.10;99.90;;;;;;5064518;28;20229;-63
2020/12/27 07:03:11;;;;;;;1.37;1.27;;;5.10;99.90;;;;;;5053376;28;20195;-64
2020/12/27 07:05:39;;;;;;;1.50;1.30;;;5.10;99.90;;;;;;5064154;28;20264;-64
2020/12/27 07:08:06;;;;;;;1.83;1.73;;;5.10;99.90;;;;;;5073721;28;20648;-65
2020/12/27 07:10:34;;;;;;;1.83;1.73;;;5.10;99.90;;;;;;5070803;28;20563;-65
2020/12/27 07:13:08;;;;;;;1.30;1.30;;;5.10;99.90;;;;;;5073136;28;20896;-65
2020/12/27 07:15:35;;;;;;;1.20;1.20;;;5.10;99.90;;;;;;5063239;28;20260;-65
2020/12/27 07:18:08;;;;;;;1.10;1.10;;;5.10;99.90;;;;;;5053844;28;20166;-65
2020/12/27 07:20:38;;;;;;;1.37;1.30;;;5.10;99.90;;;;;;5067565;28;20642;-64
2020/12/27 07:23:11;;;;;;;1.20;1.20;;;5.10;99.90;;;;;;5073139;28;20220;-65
2020/12/27 07:25:41;;;;;;;1.10;1.10;;;5.10;99.90;;;;;;5057195;28;20193;-65
2020/12/27 07:28:08;;;;;;;1.30;1.20;;;5.10;99.90;;;;;;5053000;28;20170;-65
2020/12/27 07:30:34;;;;;;;1.20;1.20;;;5.10;99.90;;;;;;5053526;28;20298;-64
2020/12/27 07:33:06;;;;;;;1.20;1.20;;;5.10;99.90;;;;;;5070143;28;20289;-64
2020/12/27 07:35:35;;;;;;;1.57;1.30;;;5.10;99.90;;;;;;5059449;28;20189;-64
2020/12/27 07:38:02;;;;;;;1.20;1.20;;;5.10;99.90;;;;;;5052805;28;20171;-64
2020/12/27 07:40:32;;;;;;;1.10;1.10;;;5.10;99.90;;;;;;5064573;28;20182;-64
2020/12/27 07:42:59;;;;;;;1.07;1.07;;;5.10;99.90;;;;;;5072612;28;20194;-64
2020/12/27 07:45:25;;;;;;;1.20;1.20;;;5.10;99.90;;;;;;5060789;28;20221;-64
2020/12/27 07:47:51;;;;;;;1.10;1.10;;;5.10;99.90;;;;;;5052569;28;20202;-64
2020/12/27 07:50:18;;;;;;;1.10;1.10;;;5.20;99.90;;;;;;5061882;28;20186;-64
2020/12/27 07:52:52;;;;;;;1.17;1.10;;;5.20;99.90;;;;;;5072317;28;20278;-64
2020/12/27 07:55:37;;;;;;;1.10;1.10;;;5.20;99.90;;;;;;5054051;28;20534;-64
2020/12/27 07:58:07;;;;;;;1.10;1.10;;;5.20;99.90;;;;;;5052303;28;20183;-64
2020/12/27 08:00:39;;;;;;;1.10;1.10;;;5.20;99.90;;;;;;5054069;28;20178;-63
2020/12/27 08:03:09;;;;;;;1.00;1.00;;;5.20;99.90;;;;;;5052236;28;20194;-65
2020/12/27 08:05:38;;;;;;;1.10;1.10;;;5.30;99.90;;;;;;5052443;28;20519;-64
2020/12/27 08:08:06;;;;;;;1.20;1.20;;;5.30;99.90;;;;;;5052421;28;20220;-63
2020/12/27 08:10:32;;;;;;;1.40;1.30;;;5.30;99.90;;;;;;5056176;28;20747;-64
2020/12/27 08:13:02;;;;;;;1.20;1.20;;;5.30;99.90;;;;;;5072104;28;20206;-63
2020/12/27 08:15:30;;;;;;;1.10;1.10;;;5.30;99.90;;;;;;5055194;28;20182;-64
2020/12/27 08:17:58;;;;;;;1.10;1.10;;;5.30;99.90;;;;;;5052113;28;20201;-64
2020/12/27 08:20:25;;;;;;;1.20;1.20;;;5.30;99.90;;;;;;5066577;28;20657;-63
2020/12/27 08:23:04;;;;;;;1.10;1.10;;;5.30;99.90;;;;;;5071499;28;20213;-64
2020/12/27 08:25:31;;;;;;;2.20;1.20;;;5.40;99.90;;;;;;5066544;28;20515;-64
2020/12/27 08:27:59;;;;;;;3.70;1.40;;;5.40;99.90;;;;;;5071271;28;20174;-64
2020/12/27 08:30:26;;;;;;;1.20;1.20;;;5.40;99.90;;;;;;5051443;28;20183;-64
2020/12/27 08:33:08;;;;;;;1.30;1.30;;;5.40;99.90;;;;;;5052540;28;20210;-63
2020/12/27 08:35:34;;;;;;;1.10;1.10;;;5.40;99.90;;;;;;5051815;28;20581;-63
2020/12/27 08:38:17;;;;;;;1.20;1.10;;;5.50;99.90;;;;;;5050122;28;20186;-64
2020/12/27 08:40:45;;;;;;;1.40;1.30;;;5.50;99.90;;;;;;5031279;28;20188;-63
2020/12/27 08:43:30;;;;;;;1.00;1.00;;;5.50;99.90;;;;;;5031740;28;20202;-64
2020/12/27 08:45:56;;;;;;;1.07;1.07;;;5.50;99.90;;;;;;5031765;28;20207;-64
2020/12/27 08:48:34;;;;;;;1.10;1.10;;;5.60;99.90;;;;;;5033540;28;20693;-64
2020/12/27 08:51:02;;;;;;;3.77;1.10;;;5.60;99.90;;;;;;5065836;28;20239;-64
2020/12/27 08:53:31;;;;;;;1.03;1.03;;;5.60;99.90;;;;;;5052007;28;20194;-63
2020/12/27 08:56:00;;;;;;;1.07;1.07;;;5.60;99.90;;;;;;5031498;28;20641;-63
2020/12/27 08:58:26;;;;;;;1.00;1.00;;;5.70;99.90;;;;;;5038761;28;20174;-64
2020/12/27 09:00:52;;;;;;;1.10;1.10;;;5.70;99.90;;;;;;5051282;28;20274;-63
2020/12/27 09:03:17;;;;;;;1.30;1.30;;;5.60;99.90;;;;;;5055454;28;20198;-64
2020/12/27 09:05:43;;;;;;;1.10;1.10;;;5.60;99.90;;;;;;5070984;28;20175;-64
2020/12/27 09:08:17;;;;;;;1.10;1.10;;;5.60;99.90;;;;;;5068764;28;20186;-64
2020/12/27 09:10:42;;;;;;;1.20;1.20;;;5.70;99.90;;;;;;5050736;28;20248;-64
2020/12/27 09:13:12;;;;;;;1.40;1.30;;;5.70;99.90;;;;;;5051727;28;20190;-64
2020/12/27 09:15:46;;;;;;;1.47;1.37;;;5.70;99.90;;;;;;5070962;28;20181;-63
2020/12/27 09:18:16;;;;;;;1.27;1.27;;;5.70;99.90;;;;;;5069207;28;20174;-64
2020/12/27 09:20:44;;;;;;;1.63;1.53;;;5.80;99.90;;;;;;5050666;28;20183;-64
2020/12/27 09:23:19;;;;;;;1.23;1.20;;;5.80;99.90;;;;;;5051779;28;20214;-64
2020/12/27 09:25:46;;;;;;;1.47;1.10;;;5.70;99.90;;;;;;5070514;28;20181;-64
2020/12/27 09:28:19;;;;;;;1.20;1.20;;;5.70;99.90;;;;;;5051258;28;20178;-64
2020/12/27 09:30:57;;;;;;;1.53;1.43;;;5.60;99.90;;;;;;5050614;28;20210;-64
2020/12/27 09:33:23;;;;;;;1.10;1.10;;;5.60;99.90;;;;;;5030936;28;20694;-64
2020/12/27 09:35:58;;;;;;;1.90;1.20;;;5.60;99.90;;;;;;5046632;28;20281;-64
2020/12/27 09:38:28;;;;;;;1.23;1.23;;;5.50;99.90;;;;;;5050922;28;20244;-64
2020/12/27 09:41:10;;;;;;;1.40;1.30;;;5.50;99.90;;;;;;5063467;28;20210;-64
2020/12/27 09:43:51;;;;;;;1.30;1.30;;;5.50;99.90;;;;;;5070810;28;20247;-64
2020/12/27 09:46:57;;;;;;;1.23;1.20;;;5.50;99.90;;;;;;5053934;28;20209;-63
2020/12/27 09:49:32;;;;;;;1.40;1.30;;;5.40;99.90;;;;;;5012087;28;20187;-63
2020/12/27 09:52:15;;;;;;;1.30;1.20;;;5.40;99.90;;;;;;5048036;28;20802;-63
2020/12/27 09:54:42;;;;;;;1.90;1.50;;;5.40;99.90;;;;;;5058130;28;20242;-63
2020/12/27 09:57:13;;;;;;;2.93;2.83;;;5.40;99.90;;;;;;5070838;28;20227;-63
2020/12/27 09:59:40;;;;;;;1.50;1.40;;;5.40;99.90;;;;;;5064284;28;20179;-64
2020/12/27 10:02:05;;;;;;;1.53;1.43;;;5.40;99.90;;;;;;5050457;28;20190;-64
2020/12/27 10:04:32;;;;;;;1.50;1.40;;;5.40;99.90;;;;;;5053461;28;20558;-64
2020/12/27 10:06:58;;;;;;;1.60;1.47;;;5.40;99.90;;;;;;5069439;28;20709;-63
2020/12/27 10:09:24;;;;;;;1.20;1.20;;;5.40;99.90;;;;;;5066696;28;20178;-64
2020/12/27 10:11:49;;;;;;;2.23;1.60;;;5.40;99.90;;;;;;5049770;28;20214;-63
2020/12/27 10:14:15;;;;;;;1.70;1.60;;;5.40;99.90;;;;;;5050566;28;20263;-64
2020/12/27 10:16:40;;;;;;;1.10;1.10;;;5.50;99.90;;;;;;5069710;28;20233;-63
2020/12/27 10:19:06;;;;;;;1.40;1.30;;;5.50;99.90;;;;;;5073290;28;20659;-65
2020/12/27 10:21:32;;;;;;;1.40;1.40;;;5.60;99.90;;;;;;5054031;28;20241;-64
2020/12/27 10:23:57;;;;;;;1.40;1.30;;;5.60;99.90;;;;;;5069893;28;20218;-64
2020/12/27 10:26:23;;;;;;;1.20;1.20;;;5.60;99.90;;;;;;5073983;28;20612;-64
2020/12/27 10:28:48;;;;;;;1.40;1.30;;;5.60;99.90;;;;;;5058777;28;20201;-63
2020/12/27 10:31:14;;;;;;;2.07;1.30;;;5.60;99.90;;;;;;5053704;28;20225;-64
2020/12/27 10:33:40;;;;;;;1.20;1.20;;;5.60;99.90;;;;;;5066420;28;20256;-63
2020/12/27 10:36:05;;;;;;;1.60;1.50;;;5.60;99.90;;;;;;5073962;28;20174;-64
2020/12/27 10:38:31;;;;;;;2.67;1.40;;;5.60;99.90;;;;;;5062043;28;20190;-64
2020/12/27 10:40:57;;;;;;;1.17;1.17;;;5.70;99.90;;;;;;5053696;28;20181;-63
2020/12/27 10:43:22;;;;;;;1.33;1.30;;;5.70;99.90;;;;;;5062458;28;20581;-63
2020/12/27 10:45:48;;;;;;;1.73;1.30;;;5.70;99.90;;;;;;5073616;28;20231;-64
2020/12/27 10:48:13;;;;;;;1.40;1.30;;;5.70;99.90;;;;;;5065983;28;20185;-64
2020/12/27 10:50:40;;;;;;;1.37;1.30;;;5.70;99.90;;;;;;5057878;28;20566;-64
2020/12/27 10:53:06;;;;;;;1.43;1.33;;;5.60;99.90;;;;;;5073611;28;20616;-63
2020/12/27 10:55:31;;;;;;;1.40;1.30;;;5.60;99.90;;;;;;5069388;28;20182;-64
2020/12/27 10:57:57;;;;;;;1.70;1.60;;;5.60;99.90;;;;;;5054037;28;20181;-64
2020/12/27 11:00:22;;;;;;;2.10;1.77;;;5.60;99.90;;;;;;5053553;28;20313;-64
2020/12/27 11:02:48;;;;;;;1.53;1.43;;;5.60;99.90;;;;;;5053213;28;20195;-63
2020/12/27 11:05:13;;;;;;;1.63;1.53;;;5.60;99.90;;;;;;5072068;28;20180;-62
2020/12/27 11:07:39;;;;;;;1.47;1.37;;;5.70;99.90;;;;;;5073019;28;20252;-64
2020/12/27 11:10:05;;;;;;;1.60;1.50;;;5.60;99.90;;;;;;5059476;28;20171;-64
2020/12/27 11:12:31;;;;;;;1.73;1.57;;;5.70;99.90;;;;;;5072819;28;20212;-64
2020/12/27 11:14:56;;;;;;;1.30;1.30;;;5.70;99.90;;;;;;5057659;28;20659;-64
2020/12/27 11:17:25;;;;;;;1.47;1.37;;;5.70;99.90;;;;;;5053209;28;20254;-63
2020/12/27 11:19:51;;;;;;;1.30;1.30;;;5.70;99.90;;;;;;5067647;28;20178;-64
2020/12/27 11:22:16;;;;;;;1.40;1.30;;;5.80;99.90;;;;;;5072775;28;20300;-63
2020/12/27 11:24:42;;;;;;;1.40;1.40;;;5.80;99.90;;;;;;5060243;28;20640;-64
2020/12/27 11:27:08;;;;;;;1.10;1.10;;;5.80;99.90;;;;;;5053251;28;20260;-64
2020/12/27 11:29:33;;;;;;;1.30;1.20;;;5.80;99.90;;;;;;5063048;28;20725;-64
2020/12/27 11:31:59;;;;;;;1.20;1.20;;;5.80;99.90;;;;;;5072605;28;20210;-64
2020/12/27 11:34:27;;;;;;;1.43;1.33;;;5.80;99.90;;;;;;5063859;28;20236;-64
2020/12/27 11:36:53;;;;;;;1.37;1.27;;;5.90;99.90;;;;;;5052420;28;20221;-64
2020/12/27 11:39:19;;;;;;;1.20;1.20;;;5.80;99.90;;;;;;5059616;28;20182;-64
2020/12/27 11:41:48;;;;;;;1.40;1.30;;;5.90;99.90;;;;;;5072117;28;20419;-64
2020/12/27 11:44:14;;;;;;;1.60;1.50;;;5.90;99.90;;;;;;5071082;28;20201;-65
2020/12/27 11:46:39;;;;;;;1.40;1.40;;;6.00;99.90;;;;;;5072261;28;20239;-65
2020/12/27 11:49:07;;;;;;;1.20;1.20;;;6.00;99.90;;;;;;5068395;28;20182;-64
2020/12/27 11:51:33;;;;;;;1.23;1.23;;;6.00;99.90;;;;;;5051700;28;20206;-65
2020/12/27 11:53:58;;;;;;;1.43;1.33;;;6.10;99.90;;;;;;5054653;28;20198;-65
2020/12/27 11:56:24;;;;;;;1.10;1.10;;;6.10;99.90;;;;;;5072317;28;20253;-64
2020/12/27 11:58:49;;;;;;;1.23;1.23;;;6.00;99.90;;;;;;5071728;28;20186;-65
2020/12/27 12:01:15;;;;;;;1.40;1.30;;;6.00;99.90;;;;;;5052584;28;20536;-65
2020/12/27 12:03:44;;;;;;;1.30;1.20;;;6.00;99.90;;;;;;5051733;28;20212;-64
2020/12/27 12:06:13;;;;;;;1.10;1.10;;;6.10;99.90;;;;;;5052477;28;20183;-65
2020/12/27 12:08:39;;;;;;;1.30;1.30;;;6.00;99.90;;;;;;5051851;28;20240;-65
2020/12/27 12:11:05;;;;;;;1.30;1.30;;;6.00;99.90;;;;;;5069239;28;20241;-65
2020/12/27 12:13:30;;;;;;;1.10;1.10;;;6.00;99.90;;;;;;5058673;28;20615;-64
2020/12/27 12:15:56;;;;;;;2.13;1.30;;;6.00;99.90;;;;;;5053448;28;20184;-65
2020/12/27 12:18:22;;;;;;;1.17;1.17;;;6.00;99.90;;;;;;5072240;28;20198;-64
2020/12/27 12:20:47;;;;;;;1.30;1.30;;;6.00;99.90;;;;;;5071433;28;20196;-66
2020/12/27 12:23:14;;;;;;;1.60;1.50;;;6.00;99.90;;;;;;5051258;28;20754;-63
2020/12/27 12:25:44;;;;;;;1.20;1.20;;;6.00;99.90;;;;;;5051714;28;20209;-64
2020/12/27 12:28:09;;;;;;;1.07;1.07;;;6.00;99.90;;;;;;5070002;28;20174;-64
2020/12/27 12:30:39;;;;;;;1.37;1.33;;;6.00;99.90;;;;;;5071331;28;20193;-66
2020/12/27 12:33:04;;;;;;;1.40;1.30;;;6.00;99.90;;;;;;5053221;28;20200;-64
2020/12/27 12:35:30;;;;;;;1.10;1.10;;;6.00;99.90;;;;;;5065909;28;20233;-64
2020/12/27 12:37:58;;;;;;;1.20;1.20;;;6.00;99.90;;;;;;5071653;28;20178;-64
2020/12/27 12:40:24;;;;;;;1.20;1.20;;;6.00;99.90;;;;;;5069274;28;20186;-64
2020/12/27 12:42:49;;;;;;;1.40;1.30;;;6.00;99.90;;;;;;5071474;28;20551;-64
2020/12/27 12:45:15;;;;;;;1.30;1.20;;;6.00;99.90;;;;;;5059915;28;20182;-64
2020/12/27 12:47:41;;;;;;;1.10;1.10;;;6.00;99.90;;;;;;5051424;28;20177;-64
2020/12/27 12:50:06;;;;;;;1.20;1.20;;;6.00;99.90;;;;;;5060560;28;20205;-67
2020/12/27 12:52:32;;;;;;;1.07;1.07;;;6.00;99.90;;;;;;5071206;28;20205;-64
2020/12/27 12:54:58;;;;;;;1.23;1.23;;;6.00;99.90;;;;;;5063557;28;20214;-64
2020/12/27 12:57:23;;;;;;;1.23;1.20;;;6.00;99.90;;;;;;5051289;28;20178;-64
2020/12/27 12:59:49;;;;;;;1.10;1.10;;;6.00;99.90;;;;;;5051377;28;20183;-65
2020/12/27 13:02:14;;;;;;;1.20;1.20;;;5.90;99.90;;;;;;5044019;28;20256;-64